This is the latest recevied weather packets stored in our database for station/object K0BL. If no packets are shown the sender has not sent any weather packets the latest 10 day(s).
| Time | Temp. | Humidity | Pressure | Rain* | Wind** | Luminosity | Snow |
|---|---|---|---|---|---|---|---|
| 1777758038 | 16.11° C | 37% | 1015.4 hPa | 0 mm | - | 84 W/m² | - |
| 1777755336 | 16.67° C | 35% | 1016 hPa | 0 mm | - | 639 W/m² | - |
| 1777751733 | 16.67° C | 37% | 1016.9 hPa | 0 mm | - | 788 W/m² | - |
| 1777750533 | 16.67° C | 34% | 1017 hPa | 0 mm | - | 839 W/m² | - |
| 1777749334 | 17.22° C | 34% | 1017.2 hPa | 0 mm | - | 522 W/m² | - |
| 1777748731 | 15.56° C | 36% | 1017.3 hPa | 0 mm | - | 944 W/m² | - |
| 1777745729 | 16.11° C | 35% | 1017.6 hPa | 0 mm | - | 882 W/m² | - |
| 1777744825 | 15.56° C | 36% | 1017.8 hPa | 0 mm | - | 913 W/m² | - |
| 1777744526 | 16.11° C | 36% | 1017.8 hPa | 0 mm | - | 912 W/m² | - |
| 1777743326 | 15° C | 36% | 1018 hPa | 0 mm | - | 906 W/m² | - |
| 1777743026 | 15° C | 34% | 1018.1 hPa | 0 mm | - | 906 W/m² | - |
| 1777741827 | 15.56° C | 36% | 1018.4 hPa | 0 mm | - | 899 W/m² | - |
| 1777740024 | 15° C | 36% | 1018.4 hPa | 0 mm | - | 870 W/m² | - |
| 1777739124 | 15° C | 37% | 1018.5 hPa | 0 mm | - | 870 W/m² | - |
| 1777737324 | 13.89° C | 38% | 1018.6 hPa | 0 mm | - | 797 W/m² | - |
| 1777736725 | 13.89° C | 39% | 1018.6 hPa | 0 mm | - | 780 W/m² | - |
| 1777732520 | 12.22° C | 52% | 1018.6 hPa | 0 mm | - | 562 W/m² | - |
| 1777731013 | 10.56° C | 62% | 1018.5 hPa | 0 mm | - | 480 W/m² | - |
| 1777724703 | 6.11° C | 76% | 1018.2 hPa | 0 mm | - | 159 W/m² | - |
| 1777724103 | 5.56° C | 79% | 1018.1 hPa | 0 mm | - | 98 W/m² | - |
| 1777723204 | 5° C | 84% | 1017.9 hPa | 0 mm | - | 55 W/m² | - |
| 1777722901 | 4.44° C | 85% | 1017.8 hPa | 0 mm | - | 42 W/m² | - |
| 1777721695 | 4.44° C | 86% | 1017.5 hPa | 0 mm | - | 24 W/m² | - |
| 1777720795 | 4.44° C | 89% | 1017.3 hPa | 0 mm | - | 11 W/m² | - |
| 1777713286 | 5.56° C | 87% | 1016.8 hPa | 0 mm | - | 0 W/m² | - |
* Rain latest hour (hover to see other rain measurements)
** Current wind speed in m/s (hover to see current wind gust speed)